createdAt,value
2018-08-14T00:01:02.022Z,96974.27
2018-08-14T00:03:31.391Z,96968.37
2018-08-14T00:06:00.148Z,96975.39
2018-08-14T00:08:29.025Z,96972.85
2018-08-14T00:10:57.672Z,96973.21
2018-08-14T00:13:26.471Z,96971.34
2018-08-14T00:15:55.383Z,96977.42
2018-08-14T00:18:24.209Z,96972.98
2018-08-14T00:20:52.825Z,96970.42
2018-08-14T00:23:21.462Z,96972.61
2018-08-14T00:25:50.207Z,96970.95
2018-08-14T00:28:18.902Z,96977.64
2018-08-14T00:30:47.594Z,96977.38
2018-08-14T00:33:16.515Z,96981.58
2018-08-14T00:35:45.316Z,96981.68
2018-08-14T00:38:14.275Z,96977.58
2018-08-14T00:40:42.940Z,96987.45
2018-08-14T00:43:11.637Z,96989.94
2018-08-14T00:45:40.388Z,96987.36
2018-08-14T00:48:09.431Z,96991.93
2018-08-14T00:50:38.277Z,96980.89
2018-08-14T00:53:07.412Z,96982.41
2018-08-14T00:55:36.236Z,96983.78
2018-08-14T00:58:05.417Z,96986.10
2018-08-14T01:00:35.606Z,96979.48
2018-08-14T01:03:04.491Z,96985.80
2018-08-14T01:05:33.164Z,96987.38
2018-08-14T01:08:02.204Z,96986.33
2018-08-14T01:10:30.956Z,96979.94
2018-08-14T01:12:59.785Z,96983.55
2018-08-14T01:15:30.739Z,96984.67
2018-08-14T01:17:59.787Z,96982.26
2018-08-14T01:20:30.685Z,96992.13
2018-08-14T01:22:59.778Z,96977.73
2018-08-14T01:25:28.428Z,96977.75
2018-08-14T01:27:57.314Z,96977.89
2018-08-14T01:30:27.453Z,96981.02
2018-08-14T01:32:56.106Z,96977.50
2018-08-14T01:35:24.919Z,96987.84
2018-08-14T01:37:53.568Z,96985.81
2018-08-14T01:40:22.303Z,96986.55
2018-08-14T01:42:50.996Z,96991.36
2018-08-14T01:45:19.731Z,96991.72
2018-08-14T01:47:48.503Z,96989.16
2018-08-14T01:50:20.759Z,96995.91
2018-08-14T01:52:49.682Z,96993.56
2018-08-14T01:55:19.522Z,96984.55
2018-08-14T01:57:48.774Z,96981.97
2018-08-14T02:00:17.663Z,96986.97
2018-08-14T02:02:46.391Z,96979.64
2018-08-14T02:05:15.063Z,96981.52
2018-08-14T02:07:43.783Z,96985.81
2018-08-14T02:10:14.747Z,96992.09
2018-08-14T02:12:43.791Z,96984.98
2018-08-14T02:15:14.844Z,96993.14
2018-08-14T02:17:43.647Z,96993.51
2018-08-14T02:20:16.795Z,96983.93
2018-08-14T02:22:45.781Z,96996.67
2018-08-14T02:25:14.720Z,96997.28
2018-08-14T02:27:44.414Z,96989.40
2018-08-14T02:30:13.516Z,96999.20
2018-08-14T02:35:38.693Z,96996.66
2018-08-14T02:38:07.504Z,96996.36
2018-08-14T02:40:36.168Z,96990.63
2018-08-14T02:43:04.935Z,96992.67
2018-08-14T02:45:33.580Z,96997.80
2018-08-14T02:48:02.252Z,96993.85
2018-08-14T02:50:31.200Z,96991.41
2018-08-14T02:52:59.911Z,96991.41
2018-08-14T02:55:29.075Z,96991.91
2018-08-14T02:57:57.956Z,96998.68
2018-08-14T03:00:28.547Z,96997.29
2018-08-14T03:02:57.974Z,97004.56
2018-08-14T03:05:26.927Z,97002.52
2018-08-14T03:07:55.647Z,97001.27
2018-08-14T03:10:24.363Z,97002.67
2018-08-14T03:12:53.243Z,97008.95
2018-08-14T03:15:22.853Z,97007.03
2018-08-14T03:17:53.353Z,97009.30
2018-08-14T03:20:22.142Z,97013.13
2018-08-14T03:22:51.025Z,97004.09
2018-08-14T03:25:20.139Z,97013.52
2018-08-14T03:27:49.328Z,97016.09
2018-08-14T03:30:17.980Z,97019.18
2018-08-14T03:32:46.922Z,97023.92
2018-08-14T03:35:16.490Z,97019.35
2018-08-14T03:37:45.317Z,97026.98
2018-08-14T03:40:16.516Z,97027.77
2018-08-14T03:42:46.453Z,97033.83
2018-08-14T03:45:15.257Z,97036.48
2018-08-14T03:47:44.463Z,97036.11
2018-08-14T03:50:13.610Z,97028.18
2018-08-14T03:55:13.920Z,97031.04
2018-08-14T03:57:43.071Z,97035.11
2018-08-14T04:00:14.151Z,97036.23
2018-08-14T04:02:42.839Z,97035.66
2018-08-14T04:05:12.020Z,97030.89
2018-08-14T04:07:40.895Z,97033.83
2018-08-14T04:10:10.703Z,97042.21
2018-08-14T04:12:39.578Z,97041.67
2018-08-14T04:15:09.431Z,97047.33
2018-08-14T04:17:38.176Z,97050.54
2018-08-14T04:20:10.812Z,97041.30
2018-08-14T04:22:40.143Z,97046.78
2018-08-14T04:25:09.975Z,97048.72
2018-08-14T04:27:39.097Z,97053.47
2018-08-14T04:30:09.961Z,97060.41
2018-08-14T04:32:38.699Z,97067.39
2018-08-14T04:35:07.359Z,97057.56
2018-08-14T04:37:36.128Z,97067.89
2018-08-14T04:40:06.852Z,97069.02
2018-08-14T04:42:35.659Z,97078.17
2018-08-14T04:45:04.591Z,97086.30
2018-08-14T04:47:33.239Z,97086.63
2018-08-14T04:50:02.107Z,97087.42
2018-08-14T04:52:30.727Z,97095.60
2018-08-14T04:54:59.400Z,97098.05
2018-08-14T04:57:28.209Z,97105.47
2018-08-14T04:59:57.095Z,97107.66
2018-08-14T05:02:25.807Z,97107.77
2018-08-14T05:04:54.492Z,97107.54
2018-08-14T05:07:23.056Z,97115.00
2018-08-14T05:09:51.711Z,97118.66
2018-08-14T05:12:20.380Z,97117.47
2018-08-14T05:14:49.080Z,97122.02
2018-08-14T05:17:17.684Z,97124.12
2018-08-14T05:19:46.519Z,97123.66
2018-08-14T05:22:15.267Z,97121.16
2018-08-14T05:24:43.907Z,97121.70
2018-08-14T05:27:13.063Z,97119.30
2018-08-14T05:29:41.949Z,97124.94
2018-08-14T05:32:10.673Z,97132.78
2018-08-14T05:34:39.769Z,97138.61
2018-08-14T05:37:08.583Z,97141.70
2018-08-14T05:39:37.300Z,97143.69
2018-08-14T05:42:06.008Z,97141.66
2018-08-14T05:44:34.674Z,97147.13
2018-08-14T05:47:03.376Z,97145.55
2018-08-14T05:49:32.263Z,97148.35
2018-08-14T05:52:00.948Z,97152.35
2018-08-14T05:54:29.495Z,97156.41
2018-08-14T05:56:58.336Z,97160.14
2018-08-14T05:59:26.992Z,97169.95
2018-08-14T06:01:55.759Z,97165.60
2018-08-14T06:04:24.548Z,97172.63
2018-08-14T06:06:53.123Z,97170.06
2018-08-14T06:09:21.724Z,97168.94
2018-08-14T06:11:50.435Z,97170.53
2018-08-14T06:14:19.083Z,97176.22
2018-08-14T06:16:47.885Z,97179.52
2018-08-14T06:19:16.595Z,97178.05
2018-08-14T06:21:45.143Z,97185.02
2018-08-14T06:24:13.886Z,97185.30
2018-08-14T06:26:42.572Z,97184.97
2018-08-14T06:29:11.296Z,97186.81
2018-08-14T06:31:39.943Z,97187.39
2018-08-14T06:34:08.929Z,97191.24
2018-08-14T06:36:37.589Z,97190.81
2018-08-14T06:39:11.704Z,97190.88
2018-08-14T06:41:40.367Z,97202.33
2018-08-14T06:44:09.159Z,97196.61
2018-08-14T06:46:37.984Z,97197.23
2018-08-14T06:49:07.025Z,97196.86
2018-08-14T06:51:35.621Z,97194.55
2018-08-14T06:54:04.683Z,97198.53
2018-08-14T06:56:33.241Z,97208.91
2018-08-14T06:59:01.876Z,97209.75
2018-08-14T07:01:30.508Z,97207.86
2018-08-14T07:03:59.379Z,97206.69
2018-08-14T07:06:28.033Z,97212.05
2018-08-14T07:08:56.839Z,97204.17
2018-08-14T07:11:25.505Z,97208.03
2018-08-14T07:13:54.216Z,97199.84
2018-08-14T07:16:23.137Z,97210.15
2018-08-14T07:18:51.936Z,97198.16
2018-08-14T07:21:20.596Z,97208.86
2018-08-14T07:23:49.503Z,97203.83
2018-08-14T07:26:18.240Z,97209.50
2018-08-14T07:28:47.092Z,97209.91
2018-08-14T07:31:15.875Z,97222.41
2018-08-14T07:33:44.528Z,97218.34
2018-08-14T07:36:13.339Z,97228.02
2018-08-14T07:38:42.180Z,97231.94
2018-08-14T07:41:10.875Z,97236.11
2018-08-14T07:43:39.612Z,97239.66
2018-08-14T07:46:08.396Z,97237.88
2018-08-14T07:48:37.095Z,97240.59
2018-08-14T07:51:05.724Z,97242.88
2018-08-14T07:53:34.480Z,97246.23
2018-08-14T07:56:03.079Z,97245.07
2018-08-14T07:58:31.737Z,97252.13
2018-08-14T08:01:00.380Z,97251.64
2018-08-14T08:03:29.119Z,97258.96
2018-08-14T08:05:57.773Z,97263.41
2018-08-14T08:08:26.456Z,97265.70
2018-08-14T08:10:55.120Z,97267.86
2018-08-14T08:13:23.808Z,97260.73
2018-08-14T08:15:52.631Z,97260.21
2018-08-14T08:18:21.304Z,97266.66
2018-08-14T08:20:49.945Z,97267.69
2018-08-14T08:23:20.197Z,97264.55
2018-08-14T08:25:49.008Z,97262.38
2018-08-14T08:28:17.629Z,97268.34
2018-08-14T08:30:46.368Z,97261.23
2018-08-14T08:33:15.188Z,97267.69
2018-08-14T08:35:43.901Z,97269.49
2018-08-14T08:38:12.499Z,97270.91
2018-08-14T08:40:41.188Z,97268.48
2018-08-14T08:43:09.935Z,97265.50
2018-08-14T08:45:38.699Z,97260.38
2018-08-14T08:48:16.739Z,97267.59
2018-08-14T08:50:45.796Z,97268.55
2018-08-14T08:53:15.676Z,97267.61
2018-08-14T08:55:44.368Z,97264.33
2018-08-14T08:58:13.412Z,97270.76
2018-08-14T09:00:41.925Z,97284.00
2018-08-14T09:03:10.793Z,97274.84
2018-08-14T09:05:39.748Z,97285.08
2018-08-14T09:08:11.764Z,97282.77
2018-08-14T09:10:41.102Z,97277.30
2018-08-14T09:13:11.094Z,97274.02
2018-08-14T09:15:40.159Z,97269.58
2018-08-14T09:18:09.104Z,97279.28
2018-08-14T09:20:37.760Z,97276.81
2018-08-14T09:23:06.695Z,97282.66
2018-08-14T09:25:35.348Z,97280.58
2018-08-14T09:28:04.033Z,97278.20
2018-08-14T09:30:32.717Z,97287.45
2018-08-14T09:33:01.415Z,97284.16
2018-08-14T09:35:30.239Z,97285.58
2018-08-14T09:37:59.138Z,97285.44
2018-08-14T09:40:27.729Z,97275.33
2018-08-14T09:42:56.453Z,97277.88
2018-08-14T09:45:25.639Z,97276.73
2018-08-14T09:47:54.335Z,97282.14
2018-08-14T09:50:25.706Z,97282.98
2018-08-14T09:52:54.542Z,97288.16
2018-08-14T09:55:23.503Z,97283.38
2018-08-14T09:57:53.401Z,97281.41
2018-08-14T10:00:29.979Z,97281.39
2018-08-14T10:03:03.991Z,97288.36
2018-08-14T10:05:37.940Z,97282.61
2018-08-14T10:08:12.895Z,97289.05
2018-08-14T10:10:41.760Z,97295.45
2018-08-14T10:13:11.736Z,97294.09
2018-08-14T10:15:40.961Z,97288.95
2018-08-14T10:18:11.963Z,97291.38
2018-08-14T10:20:40.695Z,97298.10
2018-08-14T10:23:09.392Z,97297.22
2018-08-14T10:25:38.019Z,97288.11
2018-08-14T10:28:07.256Z,97289.80
2018-08-14T10:30:36.397Z,97290.35
2018-08-14T10:33:05.887Z,97287.58
2018-08-14T10:35:34.855Z,97298.77
2018-08-14T10:38:04.012Z,97294.38
2018-08-14T10:40:32.559Z,97280.70
2018-08-14T10:43:01.528Z,97273.27
2018-08-14T10:45:30.171Z,97274.88
2018-08-14T10:47:58.799Z,97280.50
2018-08-14T10:50:27.675Z,97282.51
2018-08-14T10:52:56.333Z,97276.64
2018-08-14T10:55:25.157Z,97283.38
2018-08-14T10:57:53.952Z,97278.36
2018-08-14T11:00:25.880Z,97282.97
2018-08-14T11:02:55.111Z,97280.54
2018-08-14T11:05:24.076Z,97274.61
2018-08-14T11:07:53.868Z,97284.70
2018-08-14T11:10:24.149Z,97276.98
2018-08-14T11:12:53.079Z,97277.05
2018-08-14T11:15:21.714Z,97277.69
2018-08-14T11:17:50.476Z,97281.23
2018-08-14T11:20:23.091Z,97267.00
2018-08-14T11:22:52.251Z,97271.22
2018-08-14T11:25:20.859Z,97275.89
2018-08-14T11:27:49.579Z,97277.55
2018-08-14T11:30:20.146Z,97279.28
2018-08-14T11:32:48.977Z,97277.16
2018-08-14T11:35:17.928Z,97268.44
2018-08-14T11:37:46.635Z,97271.46
2018-08-14T11:40:15.368Z,97265.44
2018-08-14T11:42:44.091Z,97271.19
2018-08-14T11:45:23.040Z,97271.25
2018-08-14T11:47:52.350Z,97272.13
2018-08-14T11:50:21.699Z,97284.11
2018-08-14T11:52:52.055Z,97282.25
2018-08-14T11:55:21.528Z,97282.37
2018-08-14T11:57:51.086Z,97291.41
2018-08-14T12:00:22.273Z,97285.16
2018-08-14T12:02:51.515Z,97286.92
2018-08-14T12:05:20.348Z,97291.71
2018-08-14T12:07:48.940Z,97293.57
2018-08-14T12:10:18.196Z,97282.80
2018-08-14T12:12:46.881Z,97286.89
2018-08-14T12:15:16.447Z,97287.98
2018-08-14T12:17:46.271Z,97288.33
2018-08-14T12:20:16.292Z,97285.05
2018-08-14T12:22:45.175Z,97282.88
2018-08-14T12:25:15.528Z,97285.50
2018-08-14T12:27:44.500Z,97284.23
2018-08-14T12:30:16.580Z,97289.19
2018-08-14T12:32:45.429Z,97281.55
2018-08-14T12:35:14.023Z,97289.88
2018-08-14T12:37:43.035Z,97287.91
2018-08-14T12:40:12.621Z,97294.19
2018-08-14T12:42:41.328Z,97294.21
2018-08-14T12:45:12.976Z,97292.25
2018-08-14T12:47:41.747Z,97290.47
2018-08-14T12:50:11.553Z,97293.08
2018-08-14T12:52:40.472Z,97294.70
2018-08-14T12:55:10.060Z,97294.38
2018-08-14T12:57:38.949Z,97296.27
2018-08-14T13:00:10.627Z,97295.25
2018-08-14T13:02:39.188Z,97299.70
2018-08-14T13:05:07.920Z,97297.47
2018-08-14T13:07:36.667Z,97298.13
2018-08-14T13:10:07.033Z,97295.73
2018-08-14T13:12:35.923Z,97289.25
2018-08-14T13:15:05.267Z,97290.22
2018-08-14T13:17:33.843Z,97288.56
2018-08-14T13:20:02.468Z,97287.58
2018-08-14T13:22:31.147Z,97287.25
2018-08-14T13:24:59.813Z,97291.30
2018-08-14T13:27:28.628Z,97286.22
2018-08-14T13:29:57.396Z,97291.91
2018-08-14T13:32:26.193Z,97299.91
2018-08-14T13:34:55.189Z,97298.15
2018-08-14T13:37:24.025Z,97305.10
2018-08-14T13:39:52.645Z,97295.83
2018-08-14T13:42:21.258Z,97303.31
2018-08-14T13:44:50.063Z,97302.17
2018-08-14T13:47:18.615Z,97299.73
2018-08-14T13:49:47.427Z,97302.97
2018-08-14T13:52:16.166Z,97302.13
2018-08-14T13:54:46.048Z,97298.55
2018-08-14T13:57:14.817Z,97309.98
2018-08-14T13:59:43.465Z,97307.09
2018-08-14T14:02:12.328Z,97307.58
2018-08-14T14:04:40.941Z,97313.36
2018-08-14T14:07:10.463Z,97312.92
2018-08-14T14:09:39.179Z,97301.02
2018-08-14T14:12:07.830Z,97312.24
2018-08-14T14:14:36.714Z,97296.64
2018-08-14T14:17:05.928Z,97298.95
2018-08-14T14:19:35.124Z,97294.16
2018-08-14T14:22:05.020Z,97294.13
2018-08-14T14:24:33.841Z,97298.89
2018-08-14T14:27:02.655Z,97303.17
2018-08-14T14:29:31.394Z,97304.73
2018-08-14T14:32:00.367Z,97309.16
2018-08-14T14:34:28.979Z,97306.73
2018-08-14T14:36:57.657Z,97312.61
2018-08-14T14:39:26.284Z,97305.94
2018-08-14T14:41:55.215Z,97300.73
2018-08-14T14:44:23.957Z,97303.88
2018-08-14T14:46:52.544Z,97311.24
2018-08-14T14:49:21.436Z,97301.31
2018-08-14T14:51:50.127Z,97310.63
2018-08-14T14:54:18.851Z,97303.27
2018-08-14T14:56:47.612Z,97309.66
2018-08-14T14:59:16.480Z,97307.01
2018-08-14T16:46:31.447Z,97371.80
2018-08-14T16:49:00.148Z,97367.06
2018-08-14T16:51:28.803Z,97369.75
2018-08-14T16:53:57.488Z,97365.94
2018-08-14T16:56:26.223Z,97367.98
2018-08-14T16:58:54.763Z,97372.26
2018-08-14T17:01:23.419Z,97371.78
2018-08-14T17:03:51.967Z,97377.72
2018-08-14T17:06:21.231Z,97376.02
2018-08-14T17:08:49.908Z,97382.23
2018-08-14T17:11:18.455Z,97383.72
2018-08-14T17:13:47.020Z,97380.08
2018-08-14T17:16:15.624Z,97373.66
2018-08-14T17:18:44.184Z,97373.66
2018-08-14T17:21:11.484Z,97382.31
2018-08-14T17:23:40.251Z,97381.14
2018-08-14T17:26:08.801Z,97387.33
2018-08-14T17:28:37.344Z,97389.73
2018-08-14T17:31:05.951Z,97390.47
2018-08-14T17:33:34.523Z,97391.00
2018-08-14T17:36:03.088Z,97393.86
2018-08-14T17:38:31.860Z,97391.50
2018-08-14T17:41:00.444Z,97389.11
2018-08-14T17:43:29.023Z,97394.62
2018-08-14T17:45:57.635Z,97397.31
2018-08-14T17:48:26.191Z,97398.02
2018-08-14T17:50:54.798Z,97403.58
2018-08-14T17:53:23.503Z,97410.07
2018-08-14T17:55:52.083Z,97410.00
2018-08-14T17:58:20.725Z,97414.89
2018-08-14T18:00:49.275Z,97414.75
2018-08-14T18:03:17.984Z,97427.42
2018-08-14T18:05:46.556Z,97421.09
2018-08-14T18:08:15.428Z,97429.91
2018-08-14T18:10:44.039Z,97429.12
2018-08-14T18:13:12.596Z,97437.38
2018-08-14T18:15:41.164Z,97439.73
2018-08-14T18:18:09.740Z,97438.95
2018-08-14T18:20:38.323Z,97447.45
2018-08-14T18:23:07.211Z,97447.09
2018-08-14T18:25:42.549Z,97453.50
2018-08-14T18:28:14.332Z,97447.34
2018-08-14T18:30:47.259Z,97452.80
2018-08-14T18:33:16.684Z,97457.51
2018-08-14T18:35:45.503Z,97457.63
2018-08-14T18:38:18.916Z,97465.00
2018-08-14T18:40:48.216Z,97465.12
2018-08-14T18:43:21.523Z,97477.73
2018-08-14T18:45:50.240Z,97475.61
2018-08-14T18:48:20.496Z,97479.86
2018-08-14T18:50:49.794Z,97487.77
2018-08-14T18:53:21.357Z,97493.03
2018-08-14T18:55:52.163Z,97495.47
2018-08-14T18:58:21.079Z,97500.02
2018-08-14T19:00:51.683Z,97504.48
2018-08-14T19:03:21.447Z,97507.27
2018-08-14T19:05:52.968Z,97506.48
2018-08-14T19:08:22.584Z,97509.13
2018-08-14T19:10:53.166Z,97512.80
2018-08-14T19:13:21.727Z,97513.41
2018-08-14T19:15:51.738Z,97516.73
2018-08-14T19:18:21.544Z,97514.50
2018-08-14T19:20:51.143Z,97524.13
2018-08-14T19:23:22.296Z,97516.31
2018-08-14T19:25:52.767Z,97525.21
2018-08-14T19:28:22.792Z,97522.88
2018-08-14T19:30:52.647Z,97525.88
2018-08-14T19:33:22.340Z,97530.73
2018-08-14T19:35:52.313Z,97528.75
2018-08-14T19:38:20.955Z,97521.84
2018-08-14T19:40:51.999Z,97523.95
2018-08-14T19:43:24.690Z,97524.89
2018-08-14T19:45:55.357Z,97521.30
2018-08-14T19:48:25.588Z,97527.52
2018-08-14T19:51:09.182Z,97525.08
2018-08-14T19:53:38.188Z,97525.80
2018-08-14T19:56:06.833Z,97529.50
2018-08-14T19:58:38.020Z,97526.44
2018-08-14T20:01:06.616Z,97535.27
2018-08-14T20:03:35.231Z,97532.91
2018-08-14T20:06:03.831Z,97525.13
2018-08-14T20:08:32.583Z,97526.91
2018-08-14T20:11:01.211Z,97532.22
2018-08-14T20:13:29.798Z,97536.48
2018-08-14T20:16:03.956Z,97538.13
2018-08-14T20:18:33.003Z,97538.97
2018-08-14T20:21:01.608Z,97541.22
2018-08-14T20:23:30.289Z,97540.64
2018-08-14T20:25:59.088Z,97541.49
2018-08-14T20:28:27.628Z,97541.13
2018-08-14T20:30:56.375Z,97545.00
2018-08-14T20:33:24.960Z,97547.50
2018-08-14T20:35:53.557Z,97550.89
2018-08-14T20:38:22.347Z,97553.84
2018-08-14T20:40:50.991Z,97558.05
2018-08-14T20:43:19.568Z,97556.08
2018-08-14T20:45:48.360Z,97562.18
2018-08-14T20:48:16.911Z,97561.35
2018-08-14T20:50:45.500Z,97560.06
2018-08-14T20:53:14.312Z,97562.19
2018-08-14T20:55:42.948Z,97562.66
2018-08-14T20:58:11.744Z,97566.88
2018-08-14T21:00:40.445Z,97569.83
2018-08-14T21:03:09.499Z,97566.66
2018-08-14T21:05:38.718Z,97568.19
2018-08-14T21:08:07.896Z,97571.48
2018-08-14T21:10:36.963Z,97567.02
2018-08-14T21:13:06.225Z,97570.44
2018-08-14T21:15:41.094Z,97567.14
2018-08-14T21:18:09.650Z,97567.38
2018-08-14T21:20:38.240Z,97566.38
2018-08-14T21:23:07.195Z,97575.14
2018-08-14T21:25:36.279Z,97573.70
2018-08-14T21:28:06.190Z,97572.02
2018-08-14T21:30:34.919Z,97571.87
2018-08-14T21:33:03.832Z,97575.59
2018-08-14T21:35:36.462Z,97575.09
2018-08-14T21:38:05.141Z,97577.95
2018-08-14T21:40:33.799Z,97573.68
2018-08-14T21:43:02.623Z,97582.63
2018-08-14T21:45:31.195Z,97579.42
2018-08-14T21:47:59.939Z,97580.31
2018-08-14T21:50:28.619Z,97585.75
2018-08-14T21:52:57.169Z,97582.17
2018-08-14T21:55:25.712Z,97589.31
2018-08-14T21:57:54.335Z,97582.88
2018-08-14T22:00:29.368Z,97588.27
2018-08-14T22:02:57.966Z,97582.33
2018-08-14T22:08:42.424Z,97578.44
2018-08-14T22:11:33.818Z,97588.51
2018-08-14T22:14:02.889Z,97588.42
2018-08-14T22:16:31.623Z,97594.58
2018-08-14T22:19:00.158Z,97597.80
2018-08-14T22:21:28.912Z,97596.23
2018-08-14T22:23:57.424Z,97599.91
2018-08-14T22:26:26.054Z,97602.34
2018-08-14T22:28:54.654Z,97604.97
2018-08-14T22:31:23.180Z,97605.06
2018-08-14T22:33:51.720Z,97603.66
2018-08-14T22:36:20.529Z,97603.34
2018-08-14T22:38:49.068Z,97608.52
2018-08-14T22:41:17.667Z,97610.45
2018-08-14T22:43:46.247Z,97613.69
2018-08-14T22:46:14.770Z,97615.27
2018-08-14T22:48:43.299Z,97616.50
2018-08-14T22:51:11.976Z,97623.78
2018-08-14T22:53:40.552Z,97621.99
2018-08-14T22:56:09.159Z,97629.49
2018-08-14T22:58:37.836Z,97618.05
2018-08-14T23:01:06.428Z,97624.47
2018-08-14T23:03:35.020Z,97624.36
2018-08-14T23:06:03.734Z,97622.25
2018-08-14T23:08:32.248Z,97627.24
2018-08-14T23:11:00.792Z,97631.30
2018-08-14T23:13:29.436Z,97630.22
2018-08-14T23:16:02.963Z,97634.61
2018-08-14T23:18:31.564Z,97630.87
2018-08-14T23:21:00.096Z,97634.35
2018-08-14T23:23:28.646Z,97636.38
2018-08-14T23:25:57.387Z,97639.28
2018-08-14T23:28:25.925Z,97635.81
2018-08-14T23:30:54.519Z,97635.81
2018-08-14T23:33:23.060Z,97635.44
2018-08-14T23:35:51.599Z,97631.13
2018-08-14T23:38:20.154Z,97634.86
2018-08-14T23:40:48.761Z,97635.23
2018-08-14T23:43:17.315Z,97634.33
2018-08-14T23:45:45.888Z,97632.01
2018-08-14T23:48:14.500Z,97636.48
2018-08-14T23:50:43.040Z,97632.52
2018-08-14T23:53:11.645Z,97632.27
2018-08-14T23:55:40.243Z,97634.63
2018-08-14T23:58:08.821Z,97632.98
